Time;durP1;ratioP1;P1;durP2;ratioP2;P2;SDS_P1;SDS_P2;PMS_P1;PMS_P2;Temp;Humidity;BMP_temperature;BMP_pressure;BME280_temperature;BME280_humidity;BME280_pressure;Samples;Min_cycle;Max_cycle;Signal;HPM_P1;HPM_P2
2021/10/29 04:00:43;;;;;;;24.07;17.07;;;5.20;96.30;;;;;;5886498;23;20486;-76
2021/10/29 04:03:09;;;;;;;28.73;21.33;;;5.10;96.30;;;;;;5047944;28;20442;-77
2021/10/29 04:05:34;;;;;;;24.70;18.97;;;5.10;96.30;;;;;;5054902;28;20229;-76
2021/10/29 04:08:00;;;;;;;24.40;18.80;;;5.00;96.30;;;;;;5054991;28;20283;-77
2021/10/29 04:10:29;;;;;;;31.83;21.03;;;5.00;96.30;;;;;;5038595;28;20183;-78
2021/10/29 04:12:57;;;;;;;27.60;19.40;;;5.00;96.30;;;;;;5074355;28;20413;-77
2021/10/29 04:15:23;;;;;;;30.60;22.40;;;5.00;96.30;;;;;;5075418;28;20518;-79
2021/10/29 04:17:49;;;;;;;33.47;24.07;;;5.00;96.30;;;;;;5058192;28;20421;-80
2021/10/29 04:20:15;;;;;;;32.80;22.40;;;5.00;96.30;;;;;;5076048;28;20183;-79
2021/10/29 04:27:59;;;;;;;37.03;22.93;;;4.90;96.30;;;;;;5404529;23;20485;-80
2021/10/29 04:30:28;;;;;;;32.40;22.27;;;4.80;96.30;;;;;;5054858;28;20418;-81
2021/10/29 04:32:54;;;;;;;31.53;22.03;;;4.80;96.30;;;;;;5037664;28;20454;-80
2021/10/29 04:35:20;;;;;;;30.20;24.47;;;4.70;96.30;;;;;;5036852;28;20454;-77
2021/10/29 04:37:45;;;;;;;27.33;20.40;;;4.70;96.30;;;;;;5054908;28;20417;-81
2021/10/29 04:40:11;;;;;;;26.07;18.40;;;4.70;96.30;;;;;;5036694;28;20179;-80
2021/10/29 04:42:39;;;;;;;27.80;21.07;;;4.70;96.30;;;;;;5036244;28;20191;-80
2021/10/29 04:45:05;;;;;;;31.17;23.90;;;4.70;96.30;;;;;;5036782;28;20932;-80
2021/10/29 04:47:31;;;;;;;34.17;18.33;;;4.70;96.30;;;;;;5054316;28;20433;-80
2021/10/29 04:49:57;;;;;;;31.00;20.20;;;4.70;96.30;;;;;;5036669;28;20414;-81
2021/10/29 04:52:22;;;;;;;26.80;20.03;;;4.70;96.30;;;;;;5053745;28;20432;-80
2021/10/29 04:54:48;;;;;;;26.57;20.97;;;4.70;96.30;;;;;;5054340;28;20218;-80
2021/10/29 04:57:14;;;;;;;26.53;17.47;;;4.70;96.30;;;;;;5050890;28;20175;-78
2021/10/29 04:59:39;;;;;;;27.27;19.80;;;4.70;96.30;;;;;;5054024;28;20195;-78
2021/10/29 05:02:05;;;;;;;28.70;22.63;;;4.70;96.30;;;;;;5053465;28;20212;-79
2021/10/29 05:04:30;;;;;;;24.60;19.10;;;4.70;96.30;;;;;;5035316;28;20187;-78
2021/10/29 05:06:56;;;;;;;38.40;25.87;;;4.60;96.30;;;;;;5053982;28;20540;-78
2021/10/29 05:09:21;;;;;;;32.53;21.70;;;4.60;96.30;;;;;;5036044;28;20263;-79
2021/10/29 05:11:47;;;;;;;36.33;22.53;;;4.50;96.30;;;;;;5053427;28;20537;-78
2021/10/29 05:14:12;;;;;;;36.90;22.77;;;4.50;96.30;;;;;;5053743;28;20225;-79
2021/10/29 05:16:37;;;;;;;21.40;17.73;;;4.50;96.30;;;;;;5052687;28;20164;-78
2021/10/29 05:19:03;;;;;;;36.70;22.73;;;4.50;96.30;;;;;;5016058;28;20173;-79
2021/10/29 05:21:29;;;;;;;38.20;24.20;;;4.50;96.30;;;;;;5015762;28;20197;-81
2021/10/29 05:23:54;;;;;;;34.77;22.43;;;4.50;96.30;;;;;;5016066;28;20238;-81
2021/10/29 05:26:20;;;;;;;28.13;22.40;;;4.40;96.30;;;;;;5033784;28;20188;-80
2021/10/29 05:28:46;;;;;;;29.50;22.93;;;4.40;96.30;;;;;;5033641;28;20203;-81
2021/10/29 05:31:12;;;;;;;28.27;21.63;;;4.40;96.30;;;;;;5020325;28;20681;-80
2021/10/29 05:33:38;;;;;;;27.80;21.03;;;4.40;96.30;;;;;;5032884;28;20422;-78
2021/10/29 05:36:04;;;;;;;29.57;19.27;;;4.40;96.30;;;;;;5015840;28;20234;-79
2021/10/29 05:38:29;;;;;;;31.27;21.87;;;4.30;96.30;;;;;;5038427;28;20419;-81
2021/10/29 05:40:55;;;;;;;36.33;25.57;;;4.30;96.30;;;;;;5038580;28;20204;-81
2021/10/29 05:43:21;;;;;;;23.27;19.00;;;4.20;96.30;;;;;;5033156;28;20164;-81
2021/10/29 05:45:46;;;;;;;34.20;23.10;;;4.20;96.30;;;;;;5015464;28;20176;-81
2021/10/29 05:48:12;;;;;;;35.10;23.60;;;4.30;96.30;;;;;;5015639;28;20194;-82
2021/10/29 05:50:46;;;;;;;32.90;24.93;;;4.20;96.30;;;;;;5032995;28;20188;-82
2021/10/29 05:53:18;;;;;;;31.00;23.80;;;4.10;96.30;;;;;;5032892;28;20266;-81
2021/10/29 05:55:44;;;;;;;34.73;24.07;;;4.20;96.30;;;;;;5015799;28;20458;-82
2021/10/29 05:58:09;;;;;;;29.63;23.50;;;4.20;96.30;;;;;;5033288;28;20514;-80
2021/10/29 06:00:36;;;;;;;31.27;23.17;;;4.20;96.30;;;;;;5015557;28;20609;-80
2021/10/29 06:03:05;;;;;;;36.43;24.00;;;4.20;96.30;;;;;;5014771;28;20176;-79
2021/10/29 06:05:32;;;;;;;33.80;23.60;;;4.20;96.30;;;;;;5019606;28;20967;-77
2021/10/29 06:07:58;;;;;;;30.97;24.50;;;4.30;96.30;;;;;;5051358;28;20420;-79
2021/10/29 06:10:24;;;;;;;32.70;23.40;;;4.40;96.30;;;;;;5045708;28;20422;-79
2021/10/29 06:12:50;;;;;;;34.83;19.47;;;4.50;96.30;;;;;;5052032;28;20178;-78
2021/10/29 06:15:16;;;;;;;33.47;23.37;;;4.80;96.30;;;;;;5031188;28;20207;-79
2021/10/29 06:17:43;;;;;;;29.87;22.93;;;5.00;96.30;;;;;;5015500;28;20423;-79
2021/10/29 06:20:10;;;;;;;38.67;23.73;;;5.20;96.30;;;;;;5015525;28;20423;-77
2021/10/29 06:22:39;;;;;;;27.73;22.07;;;5.30;96.30;;;;;;5042015;28;20439;-77
2021/10/29 06:25:14;;;;;;;33.37;20.17;;;5.50;96.30;;;;;;5053984;28;20428;-76
2021/10/29 06:30:06;;;;;;;25.03;20.20;;;6.00;96.30;;;;;;5068410;28;20418;-75
2021/10/29 06:32:32;;;;;;;23.40;19.17;;;6.30;96.30;;;;;;5033671;28;20454;-80
2021/10/29 06:34:58;;;;;;;26.50;20.50;;;6.50;96.30;;;;;;5039982;28;20457;-76
2021/10/29 06:37:24;;;;;;;26.20;20.87;;;6.60;96.30;;;;;;5049835;28;20194;-77
2021/10/29 06:39:50;;;;;;;25.40;19.23;;;6.20;96.30;;;;;;5058119;28;20167;-80
2021/10/29 06:42:22;;;;;;;31.20;20.80;;;5.90;96.30;;;;;;5048911;28;21046;-80
2021/10/29 06:45:01;;;;;;;29.57;21.67;;;5.80;96.30;;;;;;5049501;28;20414;-76
2021/10/29 07:00:54;;;;;;;36.13;23.73;;;5.10;96.30;;;;;;5060253;28;20473;-81
2021/10/29 07:03:45;;;;;;;29.90;24.13;;;5.10;96.30;;;;;;5030839;28;20423;-83
2021/10/29 07:12:09;;;;;;;28.87;22.53;;;5.10;96.30;;;;;;5051314;28;20533;-80
2021/10/29 07:41:55;;;;;;;27.80;21.90;;;5.90;96.30;;;;;;5053576;28;20446;-81
2021/10/29 07:44:26;;;;;;;29.93;23.10;;;6.10;96.30;;;;;;5058494;28;20405;-81
2021/10/29 07:46:52;;;;;;;26.20;21.97;;;6.10;96.30;;;;;;5039485;28;20186;-82
2021/10/29 07:49:18;;;;;;;28.33;20.30;;;6.10;96.30;;;;;;5033250;28;20413;-79
2021/10/29 07:51:44;;;;;;;29.67;22.47;;;6.20;96.30;;;;;;5015867;28;20984;-85
2021/10/29 07:54:10;;;;;;;33.53;24.03;;;6.30;96.30;;;;;;5031932;28;20900;-82
2021/10/29 07:56:35;;;;;;;28.83;23.67;;;6.30;96.30;;;;;;5053706;28;20175;-81
2021/10/29 07:59:02;;;;;;;31.50;21.77;;;6.40;96.30;;;;;;5056221;28;20677;-77
2021/10/29 08:01:27;;;;;;;41.80;27.93;;;6.60;96.30;;;;;;5049066;28;20278;-82
2021/10/29 08:03:53;;;;;;;30.90;22.20;;;6.60;96.30;;;;;;5030919;28;20501;-80
2021/10/29 08:06:19;;;;;;;48.53;31.73;;;6.80;96.30;;;;;;5036570;28;20175;-80
2021/10/29 08:08:45;;;;;;;45.10;30.37;;;6.80;96.30;;;;;;5041920;28;20790;-82
2021/10/29 08:11:11;;;;;;;37.60;25.90;;;6.90;96.30;;;;;;5039257;28;20402;-82
2021/10/29 08:13:37;;;;;;;28.77;22.27;;;7.00;96.30;;;;;;5038976;28;20419;-79
2021/10/29 08:16:04;;;;;;;25.93;21.00;;;7.10;96.30;;;;;;5067970;28;20210;-82
2021/10/29 08:18:32;;;;;;;26.77;20.60;;;7.20;96.30;;;;;;5059880;28;20167;-81
2021/10/29 08:20:58;;;;;;;26.93;22.23;;;7.30;96.30;;;;;;5037345;28;20438;-81
2021/10/29 08:23:23;;;;;;;28.60;21.17;;;7.40;96.30;;;;;;5048811;28;20508;-80
2021/10/29 08:25:49;;;;;;;25.50;20.57;;;7.50;96.30;;;;;;5028217;28;20562;-82
2021/10/29 08:28:15;;;;;;;26.37;19.50;;;7.60;96.30;;;;;;5031713;28;20188;-81
2021/10/29 08:30:41;;;;;;;19.83;17.33;;;7.60;96.30;;;;;;5038926;28;20237;-81
2021/10/29 08:33:07;;;;;;;22.97;20.37;;;7.80;96.30;;;;;;5051581;28;20433;-82
2021/10/29 08:35:32;;;;;;;18.30;16.37;;;7.80;96.30;;;;;;5047920;28;20659;-81
2021/10/29 08:37:58;;;;;;;21.03;15.77;;;7.90;96.30;;;;;;5033367;28;20645;-81
2021/10/29 08:40:25;;;;;;;24.13;20.70;;;8.00;96.30;;;;;;5018492;28;20176;-82
2021/10/29 08:42:51;;;;;;;22.80;19.63;;;8.00;96.30;;;;;;5034813;28;20607;-82
2021/10/29 08:45:17;;;;;;;24.67;20.50;;;8.00;96.30;;;;;;5053781;28;20938;-81
2021/10/29 08:47:44;;;;;;;25.37;19.57;;;8.10;96.30;;;;;;5035712;28;20504;-82
2021/10/29 08:50:13;;;;;;;21.03;17.50;;;8.20;96.30;;;;;;5019548;28;21094;-82
2021/10/29 08:52:40;;;;;;;24.87;18.87;;;8.20;96.30;;;;;;5032599;28;20805;-82
2021/10/29 08:55:08;;;;;;;22.50;19.63;;;8.40;96.30;;;;;;5031770;28;20455;-80
2021/10/29 08:57:34;;;;;;;22.77;17.70;;;8.40;96.30;;;;;;5016613;28;20421;-82
2021/10/29 09:00:05;;;;;;;26.67;20.87;;;8.50;96.30;;;;;;5024082;28;20552;-82
2021/10/29 09:02:34;;;;;;;28.03;20.20;;;8.60;96.30;;;;;;5051263;28;21262;-82
2021/10/29 09:05:19;;;;;;;23.17;17.63;;;8.60;96.30;;;;;;5053554;28;20442;-81
2021/10/29 09:10:44;;;;;;;20.10;15.70;;;8.70;96.30;;;;;;5053453;28;20434;-82
2021/10/29 09:32:22;;;;;;;23.80;19.70;;;9.70;96.30;;;;;;5053750;28;20462;-81
2021/10/29 09:34:59;;;;;;;25.33;19.00;;;9.70;96.30;;;;;;5030811;28;20466;-81
2021/10/29 09:37:25;;;;;;;22.30;18.30;;;9.80;96.30;;;;;;5044644;28;20789;-77
2021/10/29 09:39:54;;;;;;;24.37;19.13;;;9.90;96.30;;;;;;5048536;28;20418;-79
2021/10/29 09:42:21;;;;;;;21.30;16.80;;;9.90;96.30;;;;;;5032765;28;20427;-78
2021/10/29 09:44:52;;;;;;;21.07;15.90;;;10.00;96.30;;;;;;5033414;28;20506;-78
2021/10/29 09:47:22;;;;;;;24.83;18.70;;;10.10;96.30;;;;;;5041833;28;20426;-76
2021/10/29 09:50:12;;;;;;;24.70;18.30;;;10.10;96.30;;;;;;5053542;28;20890;-77
2021/10/29 09:57:36;;;;;;;23.33;17.20;;;10.30;96.30;;;;;;5053499;28;20456;-77
2021/10/29 10:00:06;;;;;;;20.90;15.33;;;10.40;96.30;;;;;;5038567;28;20451;-77
2021/10/29 10:02:33;;;;;;;21.80;17.30;;;10.60;96.30;;;;;;5033020;28;20895;-77
2021/10/29 10:05:04;;;;;;;18.57;16.33;;;10.80;96.30;;;;;;5017979;28;20446;-82
2021/10/29 10:07:35;;;;;;;20.27;16.57;;;11.10;96.30;;;;;;5036148;28;20520;-79
2021/10/29 10:10:03;;;;;;;25.47;16.13;;;11.70;96.30;;;;;;5033919;28;20438;-80
2021/10/29 10:12:33;;;;;;;18.33;16.43;;;12.10;96.30;;;;;;5041981;28;20438;-80
2021/10/29 10:15:04;;;;;;;19.17;15.90;;;12.40;96.30;;;;;;5033964;28;20466;-82
2021/10/29 10:17:30;;;;;;;24.23;17.47;;;12.30;96.30;;;;;;5016105;28;20423;-81
2021/10/29 10:19:58;;;;;;;21.00;14.83;;;12.50;96.30;;;;;;5040414;28;20419;-79
2021/10/29 10:22:27;;;;;;;20.20;15.50;;;12.60;96.30;;;;;;5034201;28;20442;-82
2021/10/29 10:25:01;;;;;;;21.10;15.50;;;12.40;96.30;;;;;;5031506;28;20493;-80
2021/10/29 10:30:07;;;;;;;17.47;13.63;;;12.70;96.30;;;;;;5036185;28;20805;-81
2021/10/29 10:41:29;;;;;;;16.90;13.67;;;13.40;96.30;;;;;;5040083;28;20457;-82
2021/10/29 10:44:20;;;;;;;16.50;14.80;;;13.60;96.30;;;;;;5032837;28;20907;-82
2021/10/29 10:46:51;;;;;;;17.30;14.27;;;13.20;96.30;;;;;;5045039;28;20505;-82
2021/10/29 10:49:22;;;;;;;17.07;14.83;;;13.20;96.30;;;;;;5041837;28;20425;-82
2021/10/29 10:52:17;;;;;;;14.77;12.80;;;13.40;96.30;;;;;;5026141;28;20470;-82
2021/10/29 10:54:59;;;;;;;19.33;14.83;;;13.30;96.30;;;;;;5043452;28;20503;-81
2021/10/29 10:57:44;;;;;;;15.33;13.73;;;13.60;96.30;;;;;;5034823;28;20924;-83
2021/10/29 11:05:48;;;;;;;20.00;15.90;;;13.00;96.30;;;;;;5046833;28;20861;-82
2021/10/29 11:10:58;;;;;;;18.87;14.90;;;12.80;96.30;;;;;;5039958;28;20480;-82
2021/10/29 11:13:26;;;;;;;18.30;15.00;;;13.00;96.30;;;;;;5021786;28;20473;-82
2021/10/29 11:16:02;;;;;;;26.63;15.20;;;13.10;96.30;;;;;;5021725;28;20494;-82
2021/10/29 11:18:32;;;;;;;21.43;14.60;;;13.30;96.30;;;;;;5056299;28;20532;-82
2021/10/29 11:21:06;;;;;;;18.93;14.17;;;13.30;96.30;;;;;;5025003;28;20441;-81
2021/10/29 11:23:34;;;;;;;14.70;12.40;;;13.00;96.30;;;;;;5048026;28;20414;-82
2021/10/29 11:26:08;;;;;;;17.57;15.13;;;12.40;96.30;;;;;;5041840;28;20617;-82
2021/10/29 11:28:36;;;;;;;17.10;15.30;;;12.30;96.30;;;;;;5025818;28;20448;-82
2021/10/29 11:31:04;;;;;;;18.87;15.10;;;12.50;96.30;;;;;;5054242;28;20449;-82
2021/10/29 11:33:31;;;;;;;17.23;15.27;;;12.60;96.30;;;;;;5040895;28;20908;-82
2021/10/29 11:36:01;;;;;;;16.73;14.40;;;12.40;96.30;;;;;;5045683;28;20455;-83
2021/10/29 11:38:31;;;;;;;20.90;14.60;;;12.30;96.30;;;;;;5021542;28;20569;-81
2021/10/29 11:40:57;;;;;;;17.97;15.37;;;12.00;96.30;;;;;;5021317;28;20453;-78
2021/10/29 11:43:26;;;;;;;16.20;12.73;;;12.00;96.30;;;;;;5025540;28;20430;-81
2021/10/29 11:45:53;;;;;;;17.07;14.90;;;12.10;96.30;;;;;;5043210;28;20945;-82
2021/10/29 11:48:18;;;;;;;17.67;13.73;;;12.20;96.30;;;;;;5057792;28;20414;-82
2021/10/29 11:50:44;;;;;;;18.50;14.53;;;12.10;96.30;;;;;;5059852;28;20429;-82
2021/10/29 11:53:12;;;;;;;17.80;14.60;;;12.00;96.30;;;;;;5040729;28;20188;-82
2021/10/29 11:55:51;;;;;;;17.43;14.63;;;12.40;96.30;;;;;;5022410;28;20207;-82
2021/10/29 12:01:33;;;;;;;18.40;14.43;;;12.00;96.30;;;;;;4977175;28;20440;-82
2021/10/29 12:09:31;;;;;;;18.60;15.50;;;12.10;96.30;;;;;;5048941;28;20821;-81
2021/10/29 12:12:11;;;;;;;19.70;16.80;;;11.80;96.30;;;;;;5037716;28;20869;-82
2021/10/29 12:14:39;;;;;;;23.53;14.10;;;11.70;96.30;;;;;;5059954;28;20465;-82
2021/10/29 12:17:17;;;;;;;20.17;14.47;;;11.40;96.30;;;;;;5056866;28;20413;-82
2021/10/29 12:19:45;;;;;;;17.70;13.00;;;11.30;96.30;;;;;;5038207;28;21053;-81
2021/10/29 12:24:50;;;;;;;19.13;16.30;;;11.40;96.30;;;;;;5052556;28;20433;-81
2021/10/29 12:27:22;;;;;;;21.33;16.20;;;11.50;96.30;;;;;;5052160;28;20438;-82
2021/10/29 12:53:48;;;;;;;22.37;15.87;;;10.90;96.30;;;;;;5041967;28;20407;-81
2021/10/29 13:01:56;;;;;;;30.40;16.20;;;11.40;96.30;;;;;;5044865;28;20457;-80
2021/10/29 13:04:33;;;;;;;23.60;15.90;;;11.40;96.30;;;;;;5020853;28;20999;-80
2021/10/29 13:07:02;;;;;;;20.23;15.77;;;11.40;96.30;;;;;;5022701;28;20462;-81
2021/10/29 13:09:31;;;;;;;21.57;15.67;;;11.50;96.30;;;;;;5017076;28;20505;-81
2021/10/29 13:12:00;;;;;;;25.70;15.30;;;11.40;96.30;;;;;;5016380;28;20434;-81
2021/10/29 13:14:32;;;;;;;21.13;15.90;;;11.60;96.30;;;;;;5020051;28;20460;-80
2021/10/29 13:16:59;;;;;;;18.60;15.53;;;11.50;96.30;;;;;;5054777;28;20395;-81
2021/10/29 13:27:29;;;;;;;18.80;14.97;;;11.50;96.30;;;;;;5053942;28;20434;-80
2021/10/29 14:29:39;;;;;;;19.13;14.80;;;10.10;96.30;;;;;;5032553;28;21050;-77
2021/10/29 14:34:52;;;;;;;26.27;17.77;;;10.00;96.30;;;;;;5032616;28;21084;-79
2021/10/29 14:37:43;;;;;;;20.37;15.33;;;9.80;96.30;;;;;;5031900;28;20763;-78
2021/10/29 14:40:17;;;;;;;20.23;15.10;;;9.60;96.30;;;;;;5032089;28;20407;-78
2021/10/29 14:42:47;;;;;;;23.73;17.00;;;9.70;96.30;;;;;;5031817;28;20430;-78
2021/10/29 14:45:22;;;;;;;23.17;15.70;;;9.60;96.30;;;;;;5032251;28;20478;-78
2021/10/29 14:48:02;;;;;;;27.57;17.57;;;9.60;96.30;;;;;;5032252;28;20391;-78
2021/10/29 14:51:06;;;;;;;24.43;18.20;;;9.60;96.30;;;;;;5014486;28;20801;-80
2021/10/29 15:15:01;;;;;;;24.93;17.10;;;9.00;96.30;;;;;;5033492;28;20438;-82
2021/10/29 15:17:58;;;;;;;22.13;16.47;;;8.70;96.30;;;;;;5033193;28;20813;-80
2021/10/29 15:28:26;;;;;;;24.43;16.07;;;8.30;96.30;;;;;;5032860;28;20427;-82
2021/10/29 15:44:12;;;;;;;24.27;15.10;;;8.40;96.30;;;;;;5031926;28;20423;-80
2021/10/29 15:46:44;;;;;;;25.20;17.57;;;8.20;96.30;;;;;;5031698;28;20780;-79
2021/10/29 15:51:45;;;;;;;21.17;16.83;;;8.10;96.30;;;;;;5050768;28;20449;-82
2021/10/29 15:54:11;;;;;;;23.70;16.37;;;8.10;96.30;;;;;;5051528;28;20437;-80
2021/10/29 15:56:42;;;;;;;25.10;18.00;;;8.10;96.30;;;;;;5038958;28;20449;-79
2021/10/29 15:59:28;;;;;;;26.30;19.20;;;8.00;96.30;;;;;;5028524;28;20426;-80
2021/10/29 16:02:12;;;;;;;24.03;18.47;;;7.90;96.30;;;;;;5024893;28;20526;-80
2021/10/29 16:18:19;;;;;;;27.50;19.07;;;7.40;96.30;;;;;;5036851;28;20413;-81
2021/10/29 16:20:44;;;;;;;26.33;19.03;;;7.50;96.30;;;;;;5018113;28;20434;-81
2021/10/29 16:23:11;;;;;;;30.23;18.83;;;7.50;96.30;;;;;;5017802;28;20180;-82
2021/10/29 16:25:39;;;;;;;31.63;22.23;;;7.30;96.30;;;;;;5018213;28;20180;-81
2021/10/29 16:28:08;;;;;;;29.83;18.90;;;7.00;96.30;;;;;;5046777;28;20438;-81
2021/10/29 16:30:35;;;;;;;26.30;18.70;;;6.70;96.30;;;;;;5037922;28;20487;-82
2021/10/29 16:35:39;;;;;;;34.40;20.83;;;6.50;96.30;;;;;;5055551;28;20457;-81
2021/10/29 16:38:07;;;;;;;23.67;18.93;;;6.50;96.30;;;;;;5055846;28;20455;-81
2021/10/29 16:40:34;;;;;;;36.57;27.03;;;6.70;96.30;;;;;;5037820;28;20414;-80
2021/10/29 16:43:00;;;;;;;39.17;29.27;;;6.60;96.30;;;;;;5054696;28;20402;-82
2021/10/29 16:45:26;;;;;;;59.80;41.80;;;6.30;96.30;;;;;;5036924;28;20429;-81
2021/10/29 16:47:52;;;;;;;53.90;37.00;;;6.20;96.30;;;;;;5036810;28;20420;-82
2021/10/29 16:50:20;;;;;;;60.37;42.20;;;6.10;96.30;;;;;;5037027;28;20492;-81
2021/10/29 16:52:46;;;;;;;34.30;28.73;;;6.20;96.30;;;;;;5036785;28;20183;-81
2021/10/29 16:55:11;;;;;;;33.67;28.67;;;6.40;96.30;;;;;;5037544;28;20822;-80
2021/10/29 16:57:38;;;;;;;27.80;21.63;;;6.60;96.30;;;;;;5038714;28;20255;-81
2021/10/29 17:00:06;;;;;;;34.37;23.27;;;6.70;96.30;;;;;;5055110;28;20160;-80
2021/10/29 17:02:31;;;;;;;85.40;52.47;;;6.70;96.30;;;;;;5035905;28;20941;-81
2021/10/29 17:04:57;;;;;;;35.37;26.43;;;6.70;96.30;;;;;;5037228;28;20474;-82
2021/10/29 17:07:22;;;;;;;23.50;19.50;;;6.70;96.30;;;;;;5037159;28;20182;-82
2021/10/29 17:09:50;;;;;;;31.37;17.83;;;6.70;96.30;;;;;;5055656;28;20190;-82
2021/10/29 17:12:16;;;;;;;22.20;18.20;;;6.70;96.30;;;;;;5037159;28;20198;-82
2021/10/29 17:14:42;;;;;;;29.30;20.87;;;7.00;96.30;;;;;;5047154;28;20462;-81
2021/10/29 17:17:07;;;;;;;25.50;18.30;;;7.10;96.30;;;;;;5058822;28;20462;-81
2021/10/29 17:19:33;;;;;;;25.57;17.63;;;7.30;96.30;;;;;;5040934;28;20167;-82
2021/10/29 17:21:58;;;;;;;24.50;17.17;;;7.40;96.30;;;;;;5055089;28;20195;-81
2021/10/29 17:24:24;;;;;;;20.73;16.03;;;7.50;96.30;;;;;;5054605;28;20168;-81
2021/10/29 17:26:49;;;;;;;20.67;16.23;;;7.50;96.30;;;;;;5036350;28;20655;-82
2021/10/29 17:29:16;;;;;;;25.20;17.47;;;7.60;96.30;;;;;;5037187;28;20572;-81
2021/10/29 17:31:42;;;;;;;21.60;16.67;;;7.60;96.30;;;;;;5053364;28;20213;-82
2021/10/29 17:34:07;;;;;;;41.80;27.37;;;7.70;96.30;;;;;;5035999;28;20492;-82
2021/10/29 17:36:33;;;;;;;34.33;24.90;;;7.80;96.30;;;;;;5036032;28;20203;-82
2021/10/29 17:38:59;;;;;;;44.60;28.30;;;7.80;96.30;;;;;;5035800;28;20175;-81
2021/10/29 17:41:25;;;;;;;24.33;19.50;;;8.00;96.30;;;;;;5052873;28;20426;-81
2021/10/29 17:43:51;;;;;;;22.77;16.90;;;8.00;96.30;;;;;;5035913;28;20171;-81
2021/10/29 17:46:17;;;;;;;25.37;17.63;;;8.10;96.30;;;;;;5053318;28;20410;-81
2021/10/29 17:48:42;;;;;;;25.77;19.50;;;8.10;96.30;;;;;;5036093;28;20188;-81
2021/10/29 17:51:08;;;;;;;28.47;19.33;;;8.10;96.30;;;;;;5053601;28;20441;-81
2021/10/29 17:53:34;;;;;;;21.07;15.80;;;8.10;96.30;;;;;;5036807;28;20171;-81
2021/10/29 17:56:01;;;;;;;28.10;16.50;;;8.30;96.30;;;;;;5036488;28;20211;-82
2021/10/29 17:58:26;;;;;;;24.53;17.80;;;8.40;96.30;;;;;;5054288;28;20217;-81
2021/10/29 18:00:52;;;;;;;24.80;18.00;;;8.40;96.30;;;;;;5054546;28;20426;-81
2021/10/29 18:03:18;;;;;;;32.60;19.23;;;8.40;96.30;;;;;;5054341;28;20255;-82
2021/10/29 18:05:44;;;;;;;21.27;16.73;;;8.40;96.30;;;;;;5054919;28;20441;-81
2021/10/29 18:08:11;;;;;;;35.90;23.50;;;8.40;96.30;;;;;;5036339;28;20704;-81
2021/10/29 18:10:38;;;;;;;30.83;18.53;;;8.30;96.30;;;;;;5036820;28;20414;-81
2021/10/29 18:13:05;;;;;;;28.57;19.00;;;8.30;96.30;;;;;;5035454;28;20792;-81
2021/10/29 18:15:31;;;;;;;26.03;17.30;;;8.20;96.30;;;;;;5056005;28;20854;-81
2021/10/29 18:17:57;;;;;;;29.33;22.50;;;8.30;96.30;;;;;;5061509;28;20433;-81
2021/10/29 18:20:23;;;;;;;24.97;16.83;;;8.30;96.30;;;;;;5036536;28;20623;-81
2021/10/29 18:22:49;;;;;;;28.70;17.37;;;8.40;96.30;;;;;;5053255;28;20409;-81
2021/10/29 18:25:16;;;;;;;34.07;18.07;;;8.50;96.30;;;;;;5036489;28;20410;-81
2021/10/29 18:27:43;;;;;;;24.70;18.63;;;8.40;96.30;;;;;;5047477;28;20274;-82
2021/10/29 18:30:09;;;;;;;27.73;18.67;;;8.40;96.30;;;;;;5016149;28;20423;-82
2021/10/29 18:32:35;;;;;;;27.30;19.10;;;8.30;96.30;;;;;;5032843;28;20910;-82
2021/10/29 18:35:01;;;;;;;25.47;18.30;;;8.30;96.30;;;;;;5032604;28;20470;-82
2021/10/29 18:37:29;;;;;;;24.07;17.73;;;8.30;96.30;;;;;;5014952;28;20203;-81
2021/10/29 18:39:55;;;;;;;23.87;15.77;;;8.30;96.30;;;;;;5032532;28;20168;-82
2021/10/29 18:42:21;;;;;;;21.30;16.00;;;8.30;96.30;;;;;;5013946;28;20419;-81
2021/10/29 18:44:48;;;;;;;24.40;17.77;;;8.30;96.30;;;;;;5032280;28;20173;-81
2021/10/29 18:47:14;;;;;;;29.83;17.73;;;8.30;96.30;;;;;;5014868;28;20415;-82
2021/10/29 18:49:40;;;;;;;21.00;16.50;;;8.30;96.30;;;;;;5015555;28;20410;-82
2021/10/29 18:52:06;;;;;;;22.27;14.50;;;8.40;96.30;;;;;;5014288;28;20797;-81
2021/10/29 18:54:32;;;;;;;26.00;16.77;;;8.40;96.30;;;;;;5033599;28;20917;-82
2021/10/29 18:56:58;;;;;;;26.23;17.07;;;8.40;96.30;;;;;;5015986;28;20407;-82
2021/10/29 18:59:23;;;;;;;23.97;15.60;;;8.40;96.30;;;;;;5032702;28;20510;-82
2021/10/29 19:01:50;;;;;;;28.90;17.17;;;8.30;96.30;;;;;;5032467;28;20538;-82
2021/10/29 19:04:16;;;;;;;34.70;18.73;;;8.30;96.30;;;;;;5015672;28;20169;-82
2021/10/29 19:06:43;;;;;;;21.00;16.70;;;8.30;96.30;;;;;;5014615;28;20426;-81
2021/10/29 19:09:09;;;;;;;29.80;17.50;;;8.30;96.30;;;;;;5032716;28;20406;-82
2021/10/29 19:11:41;;;;;;;24.00;17.60;;;8.30;96.30;;;;;;5013699;28;20485;-82
2021/10/29 19:14:09;;;;;;;28.40;17.60;;;8.40;96.30;;;;;;5013982;28;20180;-82
2021/10/29 19:16:34;;;;;;;29.67;18.50;;;8.40;96.30;;;;;;5014292;28;20458;-82
2021/10/29 19:19:00;;;;;;;22.13;17.30;;;8.40;96.30;;;;;;5014562;28;20417;-81
2021/10/29 19:21:26;;;;;;;26.80;16.87;;;8.40;96.30;;;;;;5023338;28;20290;-80
2021/10/29 19:23:52;;;;;;;24.47;18.30;;;8.40;96.30;;;;;;5015265;28;20176;-80
2021/10/29 19:26:19;;;;;;;23.33;17.53;;;8.40;96.30;;;;;;5036780;28;20406;-82
2021/10/29 19:28:46;;;;;;;24.80;18.10;;;8.30;96.30;;;;;;5018345;28;20199;-80
2021/10/29 19:31:12;;;;;;;24.27;16.90;;;8.40;96.30;;;;;;5017883;28;20538;-82
2021/10/29 19:33:38;;;;;;;27.60;19.07;;;8.40;96.30;;;;;;5036165;28;20476;-81
2021/10/29 19:36:08;;;;;;;30.70;18.43;;;8.40;96.30;;;;;;5018191;28;20459;-82
2021/10/29 19:38:33;;;;;;;25.60;18.67;;;8.30;96.30;;;;;;5036055;28;20426;-82
2021/10/29 19:40:59;;;;;;;28.33;18.87;;;8.30;96.30;;;;;;5017391;28;20435;-81
2021/10/29 19:43:26;;;;;;;30.13;19.47;;;8.20;96.30;;;;;;5036086;28;20177;-81
2021/10/29 19:45:52;;;;;;;32.97;20.70;;;8.10;96.30;;;;;;5018724;28;20703;-81
2021/10/29 19:48:19;;;;;;;36.10;20.90;;;8.00;96.30;;;;;;5037862;28;20473;-81
2021/10/29 19:50:49;;;;;;;26.60;19.30;;;7.90;96.30;;;;;;5020818;28;20443;-82
2021/10/29 19:53:19;;;;;;;34.03;19.27;;;8.00;96.30;;;;;;5019741;28;20414;-82
2021/10/29 19:55:44;;;;;;;25.67;18.97;;;7.90;96.30;;;;;;5020351;28;20478;-82
2021/10/29 20:00:35;;;;;;;32.57;20.40;;;7.90;96.30;;;;;;5037631;28;20198;-80
2021/10/29 20:03:01;;;;;;;26.70;19.53;;;7.90;96.30;;;;;;5018866;28;20180;-82
2021/10/29 20:05:27;;;;;;;25.83;18.60;;;7.80;96.30;;;;;;5037931;28;20726;-82
2021/10/29 20:07:53;;;;;;;26.80;21.20;;;7.60;96.30;;;;;;5020328;28;20419;-81
2021/10/29 20:10:19;;;;;;;28.90;21.63;;;7.50;96.30;;;;;;5020360;28;20180;-81
2021/10/29 20:12:44;;;;;;;28.20;19.07;;;7.20;96.30;;;;;;5019774;28;20220;-81
2021/10/29 20:15:11;;;;;;;30.90;17.40;;;7.10;96.30;;;;;;5018556;28;20822;-81
2021/10/29 20:17:39;;;;;;;32.87;23.50;;;6.90;96.30;;;;;;5035909;28;20165;-82
2021/10/29 20:20:06;;;;;;;23.13;18.03;;;6.60;96.30;;;;;;5018105;28;20898;-82
2021/10/29 20:22:31;;;;;;;37.13;19.43;;;6.50;96.30;;;;;;5035236;28;20534;-82
2021/10/29 20:24:57;;;;;;;23.90;19.60;;;6.30;96.30;;;;;;5035717;28;20510;-82
2021/10/29 20:27:23;;;;;;;27.20;20.20;;;6.30;96.30;;;;;;5023688;28;20187;-82
2021/10/29 20:29:48;;;;;;;26.63;20.90;;;6.40;96.30;;;;;;5037594;28;20176;-80
2021/10/29 20:32:14;;;;;;;24.70;19.73;;;6.30;96.30;;;;;;5037003;28;20196;-81
2021/10/29 20:34:39;;;;;;;39.50;27.40;;;6.20;96.30;;;;;;5037714;28;20230;-81
2021/10/29 20:37:05;;;;;;;25.23;19.57;;;6.20;96.30;;;;;;5053926;28;20172;-82
2021/10/29 20:39:30;;;;;;;23.40;19.10;;;6.20;96.30;;;;;;5037726;28;20648;-80
2021/10/29 20:41:56;;;;;;;27.97;20.50;;;6.30;96.30;;;;;;5036489;28;20202;-82
2021/10/29 20:44:22;;;;;;;24.03;18.83;;;6.40;96.30;;;;;;5037833;28;20180;-81
2021/10/29 20:46:48;;;;;;;23.20;19.30;;;6.50;96.30;;;;;;5055804;28;20181;-82
2021/10/29 20:49:15;;;;;;;27.67;20.13;;;6.60;96.30;;;;;;5037878;28;20168;-81
2021/10/29 20:51:41;;;;;;;32.60;24.70;;;6.60;96.30;;;;;;5037463;28;20210;-81
2021/10/29 20:54:06;;;;;;;35.73;23.50;;;6.60;96.30;;;;;;5038057;28;20418;-81
2021/10/29 20:56:33;;;;;;;31.87;21.97;;;6.60;96.30;;;;;;5056192;28;20285;-80
2021/10/29 20:58:58;;;;;;;36.20;28.37;;;6.70;96.30;;;;;;5057470;28;20164;-82
2021/10/29 21:01:25;;;;;;;31.40;22.27;;;6.90;96.30;;;;;;5056755;28;20418;-81
2021/10/29 21:03:50;;;;;;;35.00;23.47;;;7.00;96.30;;;;;;5040175;28;20175;-80
2021/10/29 21:06:22;;;;;;;29.47;22.70;;;7.10;96.30;;;;;;5058161;28;20417;-81
2021/10/29 21:08:48;;;;;;;30.47;20.30;;;7.10;96.30;;;;;;5040611;28;20168;-80
2021/10/29 21:11:14;;;;;;;22.83;19.13;;;7.20;96.30;;;;;;5057461;28;20501;-81
2021/10/29 21:13:39;;;;;;;26.53;20.30;;;7.30;96.30;;;;;;5058319;28;20186;-81
2021/10/29 21:16:05;;;;;;;27.87;20.87;;;7.30;96.30;;;;;;5057760;28;20198;-81